Time;durP1;ratioP1;P1;durP2;ratioP2;P2;SDS_P1;SDS_P2;PMS_P1;PMS_P2;Temp;Humidity;BMP_temperature;BMP_pressure;BME280_temperature;BME280_humidity;BME280_pressure;Samples;Min_cycle;Max_cycle;Signal;HPM_P1;HPM_P2
2023/01/11 00:02:00;;;;;;;38.83;24.55;;;;;;;0.46;100.00;96448.16;5065421;28;20040;-63
2023/01/11 00:04:29;;;;;;;27.70;19.90;;;;;;;0.43;100.00;96439.56;5060626;28;20700;-61
2023/01/11 00:06:55;;;;;;;19.58;13.20;;;;;;;0.38;100.00;96438.09;5059823;28;20036;-64
2023/01/11 00:09:21;;;;;;;19.25;11.32;;;;;;;0.36;100.00;96434.72;5067921;28;20825;-64
2023/01/11 00:11:46;;;;;;;25.58;17.70;;;;;;;0.38;100.00;96438.91;5060551;28;20028;-63
2023/01/11 00:14:13;;;;;;;33.40;20.45;;;;;;;0.41;100.00;96435.38;5058235;28;20471;-63
2023/01/11 00:16:39;;;;;;;32.15;19.10;;;;;;;0.38;100.00;96441.50;5062681;28;20035;-63
2023/01/11 00:19:04;;;;;;;31.92;19.20;;;;;;;0.28;100.00;96442.78;5065199;28;20432;-63
2023/01/11 00:21:30;;;;;;;24.30;16.63;;;;;;;0.24;100.00;96447.22;5062440;28;20025;-61
2023/01/11 00:23:55;;;;;;;32.22;20.27;;;;;;;0.34;100.00;96449.47;5064052;28;20025;-63
2023/01/11 00:26:20;;;;;;;41.90;27.27;;;;;;;0.28;100.00;96453.13;5065852;28;20510;-61
2023/01/11 00:28:49;;;;;;;46.53;29.70;;;;;;;0.19;100.00;96456.94;5066010;28;20047;-61
2023/01/11 00:31:15;;;;;;;43.22;27.30;;;;;;;0.13;100.00;96449.41;5062236;28;20063;-60
2023/01/11 00:33:41;;;;;;;43.30;28.40;;;;;;;0.10;100.00;96442.59;5058381;28;20034;-63
2023/01/11 00:36:08;;;;;;;44.72;28.50;;;;;;;0.09;100.00;96442.63;5066916;28;20609;-60
2023/01/11 00:38:42;;;;;;;43.65;28.52;;;;;;;0.07;100.00;96436.66;5066309;28;20519;-60
2023/01/11 00:49:22;;;;;;;22.65;14.90;;;;;;;-0.05;100.00;96431.06;5068520;28;20058;-63
2023/01/11 00:51:48;;;;;;;25.20;16.45;;;;;;;-0.08;100.00;96423.44;5068283;28;20052;-63
2023/01/11 00:54:14;;;;;;;16.17;10.20;;;;;;;-0.09;100.00;96421.75;5068442;28;20020;-63
2023/01/11 00:56:39;;;;;;;14.23;9.45;;;;;;;-0.08;100.00;96417.41;5067621;28;20020;-63
2023/01/11 00:59:04;;;;;;;14.20;10.93;;;;;;;-0.05;100.00;96417.28;5068540;28;20035;-63
2023/01/11 01:01:30;;;;;;;15.52;12.15;;;;;;;-0.02;100.00;96399.03;5068225;28;20055;-70
2023/01/11 01:03:56;;;;;;;13.50;11.43;;;;;;;-0.06;100.00;96406.09;5068221;28;20059;-68
2023/01/11 01:06:22;;;;;;;17.08;11.98;;;;;;;-0.14;100.00;96402.94;5068078;28;20050;-68
2023/01/11 01:08:47;;;;;;;18.15;12.43;;;;;;;-0.15;100.00;96412.47;5068347;28;20501;-68
2023/01/11 01:11:13;;;;;;;15.18;11.38;;;;;;;-0.09;100.00;96405.34;5067341;28;20093;-68
2023/01/11 01:16:23;;;;;;;17.58;12.55;;;;;;;-0.14;100.00;96418.47;5067507;28;20034;-68
2023/01/11 01:18:48;;;;;;;20.17;15.10;;;;;;;-0.21;100.00;96415.28;5067820;28;20048;-69
2023/01/11 01:21:13;;;;;;;20.33;17.52;;;;;;;-0.23;100.00;96408.47;5068035;28;20115;-61
2023/01/11 01:23:39;;;;;;;18.33;16.13;;;;;;;-0.21;100.00;96411.84;5067881;28;20024;-64
2023/01/11 01:26:05;;;;;;;20.02;14.45;;;;;;;-0.25;100.00;96413.69;5068206;28;20029;-64
2023/01/11 01:28:32;;;;;;;20.90;13.10;;;;;;;-0.26;100.00;96411.19;5067980;28;20444;-63
2023/01/11 01:30:57;;;;;;;16.35;11.60;;;;;;;-0.22;100.00;96410.16;5067075;28;20103;-64
2023/01/11 01:33:23;;;;;;;15.93;10.48;;;;;;;-0.19;100.00;96403.13;5067508;28;20103;-64
2023/01/11 01:35:48;;;;;;;17.30;11.23;;;;;;;-0.08;100.00;96394.09;5067711;28;20027;-64
2023/01/11 01:38:14;;;;;;;17.60;12.48;;;;;;;-0.13;100.00;96399.44;5067030;28;20044;-63
2023/01/11 01:40:41;;;;;;;17.27;10.82;;;;;;;-0.18;100.00;96399.63;5067610;28;20028;-69
2023/01/11 01:43:10;;;;;;;15.75;10.85;;;;;;;-0.21;100.00;96402.34;5068052;28;20078;-63
2023/01/11 01:45:35;;;;;;;14.02;10.55;;;;;;;-0.19;100.00;96402.28;5068011;28;20028;-63
2023/01/11 01:48:02;;;;;;;13.60;10.27;;;;;;;-0.19;100.00;96399.69;5067309;28;20059;-64
2023/01/11 01:50:31;;;;;;;13.10;9.77;;;;;;;-0.24;100.00;96404.19;5067719;28;20013;-63
2023/01/11 01:53:08;;;;;;;12.32;9.48;;;;;;;-0.25;100.00;96395.56;5060848;28;20028;-63
2023/01/11 01:55:37;;;;;;;12.48;9.23;;;;;;;-0.23;100.00;96398.13;5061736;28;20042;-63
2023/01/11 01:58:09;;;;;;;14.07;9.50;;;;;;;-0.14;100.00;96384.81;5067116;28;20108;-67
2023/01/11 02:00:38;;;;;;;10.32;8.38;;;;;;;0.02;100.00;96387.69;5067446;28;20110;-66
2023/01/11 02:03:04;;;;;;;12.65;9.45;;;;;;;-0.04;100.00;96388.75;5067556;28;20020;-67
2023/01/11 02:05:30;;;;;;;17.02;9.95;;;;;;;-0.15;100.00;96381.41;5066961;28;20029;-66
2023/01/11 02:07:58;;;;;;;12.88;10.63;;;;;;;-0.24;100.00;96380.91;5067232;28;20074;-66
2023/01/11 02:10:26;;;;;;;13.15;10.35;;;;;;;-0.29;100.00;96378.47;5066726;28;20062;-66
2023/01/11 02:12:58;;;;;;;15.43;11.50;;;;;;;-0.31;100.00;96369.94;5066910;28;20502;-66
2023/01/11 02:15:24;;;;;;;16.38;11.38;;;;;;;-0.33;100.00;96371.75;5067065;28;20056;-66
2023/01/11 02:17:49;;;;;;;13.27;10.07;;;;;;;-0.36;100.00;96364.09;5067243;28;20055;-61
2023/01/11 02:20:43;;;;;;;13.50;10.65;;;;;;;-0.36;100.00;96359.75;5067522;28;20031;-64
2023/01/11 02:24:01;;;;;;;16.20;13.82;;;;;;;-0.41;100.00;96358.25;5058499;28;20490;-61
2023/01/11 02:26:35;;;;;;;13.90;10.43;;;;;;;-0.45;100.00;96345.41;5052722;28;20047;-61
2023/01/11 02:29:28;;;;;;;13.98;12.00;;;;;;;-0.47;100.00;96344.63;5066904;28;20031;-61
2023/01/11 02:32:47;;;;;;;21.25;13.40;;;;;;;-0.48;100.00;96339.53;5065673;28;20537;-61
2023/01/11 02:35:43;;;;;;;15.23;13.35;;;;;;;-0.49;100.00;96341.28;5004826;28;20479;-61
2023/01/11 02:38:23;;;;;;;12.52;10.40;;;;;;;-0.45;100.00;96342.00;4998968;28;20151;-68
2023/01/11 02:40:51;;;;;;;14.10;10.48;;;;;;;-0.46;100.00;96348.09;5052705;28;20082;-62
2023/01/11 02:46:33;;;;;;;10.60;9.57;;;;;;;-0.54;100.00;96337.19;5069852;28;20078;-62
2023/01/11 02:49:22;;;;;;;11.15;9.82;;;;;;;-0.58;100.00;96342.47;5070868;28;20425;-62
2023/01/11 02:52:11;;;;;;;10.77;9.00;;;;;;;-0.60;100.00;96338.25;5070784;28;20060;-62
2023/01/11 02:54:40;;;;;;;7.13;6.43;;;;;;;-0.56;100.00;96338.97;5068050;28;20076;-62
2023/01/11 02:57:09;;;;;;;8.85;7.93;;;;;;;-0.55;100.00;96335.47;5069260;28;20040;-63
2023/01/11 02:59:36;;;;;;;8.88;7.85;;;;;;;-0.59;100.00;96337.34;5069841;28;20044;-63
2023/01/11 03:02:01;;;;;;;7.40;6.70;;;;;;;-0.62;100.00;96334.88;5071047;28;20028;-63
2023/01/11 03:04:29;;;;;;;7.20;6.05;;;;;;;-0.64;100.00;96334.94;5067684;28;20501;-63
2023/01/11 03:07:22;;;;;;;7.57;6.75;;;;;;;-0.65;100.00;96325.50;5071354;28;20033;-63
2023/01/11 03:10:32;;;;;;;6.32;5.13;;;;;;;-0.65;100.00;96320.31;5071469;28;20021;-63
2023/01/11 03:13:20;;;;;;;6.93;6.32;;;;;;;-0.67;100.00;96314.38;5055298;28;20502;-63
2023/01/11 03:15:54;;;;;;;9.35;7.97;;;;;;;-0.65;100.00;96315.16;5072215;28;20074;-62
2023/01/11 03:18:27;;;;;;;11.83;10.83;;;;;;;-0.64;100.00;96306.47;5071142;28;20031;-67
2023/01/11 03:21:13;;;;;;;7.75;7.00;;;;;;;-0.58;100.00;96314.00;5070785;28;20672;-67
2023/01/11 03:23:55;;;;;;;8.52;7.40;;;;;;;-0.57;100.00;96314.84;5070960;28;20032;-67
2023/01/11 03:26:23;;;;;;;7.20;6.50;;;;;;;-0.59;100.00;96308.91;5071378;28;20024;-67
2023/01/11 03:29:30;;;;;;;7.90;6.93;;;;;;;-0.65;100.00;96317.72;5069796;28;20035;-68
2023/01/11 03:32:17;;;;;;;9.07;7.38;;;;;;;-0.69;100.00;96310.13;5055262;28;20040;-66
2023/01/11 03:34:51;;;;;;;7.88;7.18;;;;;;;-0.72;100.00;96305.94;5071122;28;20026;-63
2023/01/11 03:37:19;;;;;;;7.18;6.50;;;;;;;-0.76;100.00;96309.53;5059119;28;20581;-66
2023/01/11 03:39:54;;;;;;;7.45;6.75;;;;;;;-0.79;100.00;96312.22;5071666;28;20639;-73
2023/01/11 03:42:22;;;;;;;8.18;7.38;;;;;;;-0.77;100.00;96316.44;5071172;28;20496;-73
2023/01/11 03:44:52;;;;;;;11.90;8.32;;;;;;;-0.73;100.00;96312.84;5070539;28;20043;-74
2023/01/11 03:47:20;;;;;;;9.88;8.55;;;;;;;-0.70;100.00;96319.66;5071101;28;20488;-73
2023/01/11 03:49:57;;;;;;;13.20;9.35;;;;;;;-0.70;100.00;96316.22;5071324;28;20032;-74
2023/01/11 03:52:31;;;;;;;10.73;9.20;;;;;;;-0.75;100.00;96321.56;5071383;28;20608;-74
2023/01/11 03:54:58;;;;;;;13.13;8.23;;;;;;;-0.77;100.00;96316.44;5071054;28;20029;-73
2023/01/11 03:57:33;;;;;;;9.00;7.32;;;;;;;-0.77;100.00;96308.69;5071027;28;20021;-74
2023/01/11 03:59:59;;;;;;;;;;;;;;;-0.75;100.00;96319.00;5071283;28;20044;-74
2023/01/11 04:02:32;;;;;;;7.20;6.47;;;;;;;-0.73;100.00;96306.84;5071030;28;20306;-74
2023/01/11 04:04:58;;;;;;;11.85;7.60;;;;;;;-0.68;100.00;96319.56;5070790;28;20047;-74
2023/01/11 04:07:23;;;;;;;15.18;13.18;;;;;;;-0.61;100.00;96318.47;5070699;28;20486;-74
2023/01/11 04:09:49;;;;;;;23.77;16.98;;;;;;;-0.60;100.00;96314.97;5070745;28;20086;-73
2023/01/11 04:12:14;;;;;;;17.90;15.15;;;;;;;-0.66;100.00;96315.22;5070702;28;20066;-73
2023/01/11 04:14:42;;;;;;;11.00;8.88;;;;;;;-0.72;100.00;96308.53;5070041;28;20121;-61
2023/01/11 04:17:07;;;;;;;9.80;8.20;;;;;;;-0.72;100.00;96300.78;5070677;28;20095;-60
2023/01/11 04:19:33;;;;;;;11.13;8.43;;;;;;;-0.73;100.00;96312.84;5070284;28;20542;-60
2023/01/11 04:21:58;;;;;;;10.30;7.88;;;;;;;-0.72;100.00;96308.53;5070652;28;20111;-60
2023/01/11 04:24:23;;;;;;;9.57;7.72;;;;;;;-0.73;100.00;96301.66;5070202;28;20433;-60
2023/01/11 04:26:49;;;;;;;11.25;8.73;;;;;;;-0.70;100.00;96298.97;5070701;28;20024;-60
2023/01/11 04:29:14;;;;;;;13.98;9.93;;;;;;;-0.69;100.00;96292.03;5069984;28;20047;-60
2023/01/11 04:31:39;;;;;;;12.25;9.93;;;;;;;-0.75;100.00;96291.38;5069805;28;20406;-62
2023/01/11 04:34:05;;;;;;;14.65;10.82;;;;;;;-0.75;100.00;96288.78;5067899;28;20039;-64
2023/01/11 04:36:31;;;;;;;16.85;11.23;;;;;;;-0.71;100.00;96294.69;5060618;28;20021;-62
2023/01/11 04:38:57;;;;;;;11.75;9.98;;;;;;;-0.74;100.00;96290.47;5068265;28;20028;-62
2023/01/11 04:44:07;;;;;;;11.85;8.85;;;;;;;-0.68;100.00;96279.06;5063833;28;20043;-62
2023/01/11 04:46:32;;;;;;;14.25;8.27;;;;;;;-0.44;100.00;96281.59;5064645;28;20020;-61
2023/01/11 04:48:58;;;;;;;10.50;8.00;;;;;;;-0.53;100.00;96279.38;5070011;28;20024;-62
2023/01/11 04:51:23;;;;;;;14.27;8.40;;;;;;;-0.60;100.00;96277.00;5068355;28;20038;-61
2023/01/11 04:53:49;;;;;;;9.75;7.75;;;;;;;-0.65;100.00;96276.34;5068609;28;20402;-61
2023/01/11 04:56:15;;;;;;;9.35;7.35;;;;;;;-0.69;100.00;96279.09;5069002;28;20071;-72
2023/01/11 04:58:41;;;;;;;9.88;8.32;;;;;;;-0.74;100.00;96274.94;5069841;28;20052;-72
2023/01/11 05:01:11;;;;;;;11.35;10.13;;;;;;;-0.77;100.00;96269.06;5064454;28;20079;-72
2023/01/11 05:03:37;;;;;;;15.02;11.77;;;;;;;-0.74;100.00;96268.97;5069833;28;20044;-68
2023/01/11 05:06:04;;;;;;;12.77;11.15;;;;;;;-0.70;100.00;96262.75;5069457;28;20564;-70
2023/01/11 05:08:30;;;;;;;14.02;11.80;;;;;;;-0.67;100.00;96269.53;5069083;28;20027;-69
2023/01/11 05:10:59;;;;;;;13.27;11.55;;;;;;;-0.64;100.00;96274.63;5069251;28;20029;-60
2023/01/11 05:13:40;;;;;;;13.48;11.85;;;;;;;-0.62;100.00;96283.97;5069746;28;20020;-60
2023/01/11 05:16:09;;;;;;;16.27;14.52;;;;;;;-0.59;100.00;96293.38;5068726;28;20021;-62
2023/01/11 05:18:37;;;;;;;15.70;12.70;;;;;;;-0.54;100.00;96296.63;5068803;28;20035;-62
2023/01/11 05:21:04;;;;;;;12.75;11.30;;;;;;;-0.61;100.00;96295.19;5068495;28;20025;-62
2023/01/11 05:23:30;;;;;;;10.23;9.13;;;;;;;-0.63;100.00;96303.00;5069461;28;20387;-62
2023/01/11 05:25:55;;;;;;;11.82;8.07;;;;;;;-0.62;100.00;96293.50;5063167;28;20055;-62
2023/01/11 05:28:20;;;;;;;8.05;7.28;;;;;;;-0.60;100.00;96292.53;5068390;28;20027;-63
2023/01/11 05:30:51;;;;;;;8.30;7.45;;;;;;;-0.54;100.00;96290.63;5067267;28;20107;-60
2023/01/11 05:33:16;;;;;;;7.95;7.25;;;;;;;-0.54;100.00;96295.81;5069145;28;20059;-65
2023/01/11 05:35:41;;;;;;;7.55;6.88;;;;;;;-0.53;100.00;96285.38;5069255;28;20478;-68
2023/01/11 05:38:07;;;;;;;8.27;7.28;;;;;;;-0.46;100.00;96283.41;5069054;28;20490;-68
2023/01/11 05:40:32;;;;;;;10.48;9.48;;;;;;;-0.43;100.00;96272.94;5069385;28;20781;-68
2023/01/11 05:42:57;;;;;;;14.43;12.68;;;;;;;-0.38;100.00;96259.81;5069038;28;20445;-68
2023/01/11 05:45:28;;;;;;;9.68;8.73;;;;;;;-0.38;100.00;96260.66;5069359;28;20436;-68
2023/01/11 05:47:54;;;;;;;10.52;8.50;;;;;;;-0.42;100.00;96259.09;5069296;28;20100;-68
2023/01/11 05:50:20;;;;;;;10.32;8.30;;;;;;;-0.48;100.00;96252.41;5069494;28;20099;-62
2023/01/11 05:52:45;;;;;;;9.93;7.43;;;;;;;-0.51;100.00;96244.78;5068757;28;20020;-61
2023/01/11 05:55:10;;;;;;;11.85;8.38;;;;;;;-0.50;100.00;96246.44;5069426;28;20031;-63
2023/01/11 05:57:40;;;;;;;13.07;8.43;;;;;;;-0.50;100.00;96243.03;5068693;28;20399;-63
2023/01/11 06:00:05;;;;;;;8.50;7.32;;;;;;;-0.50;100.00;96243.88;5069082;28;20487;-64
2023/01/11 06:02:31;;;;;;;11.98;10.68;;;;;;;-0.49;100.00;96242.13;5068619;28;20062;-63
2023/01/11 06:04:56;;;;;;;8.93;8.00;;;;;;;-0.46;100.00;96242.00;5069801;28;20031;-62
2023/01/11 06:07:23;;;;;;;11.13;8.48;;;;;;;-0.41;100.00;96249.59;5069010;28;20108;-63
2023/01/11 06:09:49;;;;;;;9.93;8.82;;;;;;;-0.42;100.00;96247.91;5069412;28;20558;-63
2023/01/11 06:12:14;;;;;;;12.15;9.38;;;;;;;-0.48;100.00;96239.47;5069034;28;20067;-63
2023/01/11 06:14:39;;;;;;;11.43;8.35;;;;;;;-0.54;100.00;96236.31;5068691;28;20583;-62
2023/01/11 06:17:05;;;;;;;9.65;8.25;;;;;;;-0.57;100.00;96234.69;5068348;28;20452;-63
2023/01/11 06:19:30;;;;;;;9.90;7.45;;;;;;;-0.58;100.00;96241.56;5069312;28;20470;-63
2023/01/11 06:21:55;;;;;;;8.85;7.75;;;;;;;-0.59;100.00;96236.47;5072946;28;20528;-62
2023/01/11 06:24:21;;;;;;;10.77;8.40;;;;;;;-0.59;100.00;96233.91;5072737;28;20021;-63
2023/01/11 06:26:46;;;;;;;20.73;13.75;;;;;;;-0.60;100.00;96225.28;5072035;28;20024;-62
2023/01/11 06:29:13;;;;;;;15.93;12.57;;;;;;;-0.57;100.00;96226.91;5070359;28;20042;-63
2023/01/11 06:31:38;;;;;;;19.63;13.98;;;;;;;-0.60;100.00;96227.88;5072532;28;20384;-61
2023/01/11 06:34:04;;;;;;;15.25;11.95;;;;;;;-0.63;100.00;96229.75;5072499;28;20020;-63
2023/01/11 06:36:29;;;;;;;17.02;11.75;;;;;;;-0.69;100.00;96224.78;5071110;28;20482;-63
2023/01/11 06:38:54;;;;;;;20.67;11.40;;;;;;;-0.72;100.00;96230.94;5072568;28;20508;-63
2023/01/11 06:41:20;;;;;;;13.60;10.98;;;;;;;-0.71;100.00;96232.63;5070831;28;20504;-62
2023/01/11 06:43:45;;;;;;;15.70;11.38;;;;;;;-0.71;100.00;96232.63;5072270;28;20515;-62
2023/01/11 06:46:13;;;;;;;17.27;11.63;;;;;;;-0.71;100.00;96235.22;5071707;28;20028;-63
2023/01/11 06:48:39;;;;;;;18.10;13.10;;;;;;;-0.66;100.00;96235.03;5072376;28;20088;-61
2023/01/11 06:51:04;;;;;;;14.98;12.50;;;;;;;-0.73;100.00;96234.44;5072718;28;20119;-62
2023/01/11 06:53:29;;;;;;;16.42;11.90;;;;;;;-0.77;100.00;96228.53;5072538;28;20432;-62
2023/01/11 06:55:56;;;;;;;14.75;12.10;;;;;;;-0.77;100.00;96227.69;5066866;28;20024;-62
2023/01/11 06:58:23;;;;;;;18.10;13.60;;;;;;;-0.77;100.00;96222.53;5072099;28;20025;-63
2023/01/11 07:00:50;;;;;;;18.52;11.20;;;;;;;-0.73;100.00;96219.75;5071646;28;20032;-63
2023/01/11 07:03:15;;;;;;;13.50;10.98;;;;;;;-0.71;100.00;96224.88;5071725;28;20036;-63
2023/01/11 07:05:42;;;;;;;12.13;10.45;;;;;;;-0.70;100.00;96221.38;5071597;28;20151;-62
2023/01/11 07:08:08;;;;;;;25.75;17.02;;;;;;;-0.42;100.00;96222.88;5071482;28;20024;-62
2023/01/11 07:10:34;;;;;;;21.17;18.00;;;;;;;-0.13;100.00;96227.78;5071928;28;20026;-60
2023/01/11 07:12:59;;;;;;;25.90;19.63;;;;;;;-0.43;100.00;96231.53;5071692;28;20024;-60
2023/01/11 07:15:25;;;;;;;22.70;19.17;;;;;;;-0.53;100.00;96240.59;5071259;28;20024;-60
2023/01/11 07:17:55;;;;;;;35.78;32.10;;;;;;;-0.36;100.00;96250.25;5070530;28;20056;-60
2023/01/11 07:20:21;;;;;;;28.73;25.35;;;;;;;-0.41;100.00;96250.44;5070796;28;20024;-60
2023/01/11 07:22:47;;;;;;;29.55;26.45;;;;;;;-0.47;100.00;96246.31;5070724;28;20031;-60
2023/01/11 07:25:13;;;;;;;29.33;26.35;;;;;;;-0.56;100.00;96233.78;5069141;28;20040;-60
2023/01/11 07:27:38;;;;;;;27.65;24.85;;;;;;;-0.63;100.00;96232.34;5070294;28;20020;-69
2023/01/11 07:30:04;;;;;;;26.00;23.27;;;;;;;-0.65;100.00;96247.06;5063651;28;20051;-71
2023/01/11 07:32:29;;;;;;;26.08;22.02;;;;;;;-0.67;100.00;96238.50;5060881;28;20017;-68
2023/01/11 07:34:55;;;;;;;25.73;21.25;;;;;;;-0.66;100.00;96237.63;5070733;28;20490;-68
2023/01/11 07:37:21;;;;;;;25.23;21.02;;;;;;;-0.69;100.00;96240.31;5069029;28;20036;-70
2023/01/11 07:39:47;;;;;;;19.85;17.85;;;;;;;-0.70;100.00;96234.31;5067925;28;20039;-75
2023/01/11 07:44:56;;;;;;;17.95;16.08;;;;;;;-0.61;100.00;96240.88;5068341;28;20031;-70
2023/01/11 07:47:22;;;;;;;29.75;26.52;;;;;;;-0.56;100.00;96245.84;5069567;28;20017;-60
2023/01/11 07:49:47;;;;;;;38.28;31.85;;;;;;;-0.53;100.00;96253.50;5069976;28;20064;-61
2023/01/11 07:52:13;;;;;;;28.35;25.40;;;;;;;-0.18;100.00;96267.63;5071064;28;20024;-61
2023/01/11 07:54:38;;;;;;;27.92;25.02;;;;;;;-0.30;100.00;96274.16;5070527;28;20112;-62
2023/01/11 07:57:03;;;;;;;26.67;23.90;;;;;;;-0.32;100.00;96280.28;5070706;28;20029;-61
2023/01/11 07:59:29;;;;;;;30.38;25.35;;;;;;;-0.30;100.00;96278.47;5071032;28;20021;-61
2023/01/11 08:01:55;;;;;;;33.38;27.52;;;;;;;-0.26;100.00;96289.53;5070632;28;20037;-62
2023/01/11 08:04:21;;;;;;;32.17;28.67;;;;;;;-0.22;100.00;96280.75;5070441;28;20025;-61
2023/01/11 08:06:46;;;;;;;40.58;29.35;;;;;;;-0.24;100.00;96285.16;5067680;28;20020;-62
2023/01/11 08:09:11;;;;;;;32.45;26.55;;;;;;;-0.17;100.00;96284.84;5070169;28;20021;-61
2023/01/11 08:14:39;;;;;;;38.30;33.55;;;;;;;0.02;100.00;96291.03;5070195;28;20038;-61
2023/01/11 08:17:06;;;;;;;46.83;41.85;;;;;;;0.10;100.00;96289.81;5070103;28;20028;-60
2023/01/11 08:19:31;;;;;;;59.50;53.38;;;;;;;0.15;100.00;96284.44;5069674;28;20012;-61
2023/01/11 08:21:57;;;;;;;54.80;49.03;;;;;;;0.23;100.00;96297.91;5070023;28;20104;-61
2023/01/11 08:24:22;;;;;;;36.63;32.75;;;;;;;0.28;100.00;96301.16;5069709;28;20028;-69
2023/01/11 08:26:47;;;;;;;30.42;27.35;;;;;;;0.32;100.00;96293.25;5069724;28;20036;-63
2023/01/11 08:29:13;;;;;;;33.03;27.13;;;;;;;0.37;100.00;96302.50;5069495;28;20401;-62
2023/01/11 08:31:38;;;;;;;29.63;26.38;;;;;;;0.37;100.00;96304.28;5070086;28;20060;-60
2023/01/11 08:34:04;;;;;;;28.33;25.30;;;;;;;0.42;100.00;96299.75;5069690;28;20033;-60
2023/01/11 08:36:31;;;;;;;25.55;22.95;;;;;;;0.47;100.00;96308.16;5067668;28;20029;-60
2023/01/11 08:38:56;;;;;;;26.40;23.60;;;;;;;0.55;100.00;96308.69;5069729;28;20067;-60
2023/01/11 08:41:23;;;;;;;38.33;34.33;;;;;;;0.63;100.00;96310.94;5069012;28;20497;-60
2023/01/11 08:43:48;;;;;;;41.95;37.65;;;;;;;0.64;100.00;96314.38;5068747;28;20021;-60
2023/01/11 08:46:14;;;;;;;40.80;36.42;;;;;;;0.75;100.00;96319.94;5069031;28;20020;-60
2023/01/11 08:48:40;;;;;;;43.30;36.10;;;;;;;0.92;100.00;96315.75;5069548;28;20024;-63
2023/01/11 08:51:05;;;;;;;45.83;40.92;;;;;;;1.01;100.00;96315.38;5067430;28;20021;-63
2023/01/11 08:53:30;;;;;;;42.97;38.60;;;;;;;1.12;100.00;96310.53;5068833;28;20016;-62
2023/01/11 08:55:56;;;;;;;42.22;37.72;;;;;;;1.23;100.00;96311.81;5068106;28;20071;-62
2023/01/11 08:58:21;;;;;;;44.47;37.65;;;;;;;1.31;100.00;96311.44;5069195;28;20143;-62
2023/01/11 09:00:47;;;;;;;39.13;33.25;;;;;;;1.38;100.00;96311.09;5069119;28;20074;-63
2023/01/11 09:03:13;;;;;;;37.67;33.03;;;;;;;1.45;100.00;96301.28;5069196;28;20107;-60
2023/01/11 09:05:40;;;;;;;42.10;30.67;;;;;;;1.50;100.00;96311.47;5067706;28;20032;-73
2023/01/11 09:08:07;;;;;;;88.50;57.78;;;;;;;1.54;100.00;96313.00;5069099;28;20440;-69
2023/01/11 09:10:33;;;;;;;99.82;71.28;;;;;;;1.61;100.00;96309.19;5067553;28;20036;-70
2023/01/11 09:12:58;;;;;;;45.20;39.03;;;;;;;1.72;100.00;96316.50;5068673;28;20035;-70
2023/01/11 09:15:24;;;;;;;51.28;42.40;;;;;;;1.77;100.00;96324.94;5068964;28;20107;-70
2023/01/11 09:17:51;;;;;;;49.38;40.42;;;;;;;1.82;100.00;96319.50;5068254;28;20478;-70
2023/01/11 09:20:18;;;;;;;68.22;52.10;;;;;;;1.83;100.00;96335.00;5069078;28;20025;-71
2023/01/11 09:22:47;;;;;;;95.13;74.50;;;;;;;1.91;100.00;96336.41;5069133;28;20044;-72
2023/01/11 09:25:13;;;;;;;87.03;65.25;;;;;;;1.95;100.00;96343.13;5068688;28;20025;-61
2023/01/11 09:27:43;;;;;;;74.90;58.17;;;;;;;2.09;100.00;96332.94;5069042;28;20027;-62
2023/01/11 09:30:10;;;;;;;118.80;71.55;;;;;;;2.17;100.00;96342.94;5068597;28;20517;-64
2023/01/11 09:32:35;;;;;;;104.35;58.72;;;;;;;2.20;100.00;96326.34;5068492;28;20379;-63
2023/01/11 09:35:02;;;;;;;61.95;41.63;;;;;;;2.30;100.00;96330.19;5068276;28;20111;-63
2023/01/11 09:37:28;;;;;;;42.30;35.08;;;;;;;2.51;100.00;96330.88;5067914;28;20808;-63
2023/01/11 09:39:53;;;;;;;23.00;20.48;;;;;;;2.66;100.00;96318.03;5066680;28;20036;-64
2023/01/11 09:42:38;;;;;;;37.63;29.88;;;;;;;2.70;100.00;96329.97;5069007;28;20505;-63
2023/01/11 09:45:16;;;;;;;56.78;40.22;;;;;;;2.84;100.00;96330.13;5065773;28;20028;-64
2023/01/11 09:48:16;;;;;;;34.03;26.58;;;;;;;3.04;100.00;96330.00;5067551;28;20047;-65
2023/01/11 09:50:44;;;;;;;17.77;14.82;;;;;;;3.13;100.00;96330.34;5067650;28;20506;-64
2023/01/11 09:53:34;;;;;;;16.38;14.60;;;;;;;3.18;100.00;96313.66;5067641;28;20630;-64
2023/01/11 09:56:04;;;;;;;15.50;13.88;;;;;;;3.33;100.00;96302.44;5067260;28;20124;-62
2023/01/11 09:58:58;;;;;;;106.07;82.60;;;;;;;3.64;100.00;96302.53;5072783;28;20108;-65
2023/01/11 10:01:39;;;;;;;27.98;21.83;;;;;;;3.81;100.00;96296.41;5072274;28;20016;-59
2023/01/11 10:04:28;;;;;;;12.82;8.90;;;;;;;3.86;100.00;96295.22;5072130;28;20025;-63
2023/01/11 10:07:23;;;;;;;16.63;11.18;;;;;;;4.12;100.00;96289.47;5071993;28;20405;-60
2023/01/11 10:10:15;;;;;;;12.43;8.50;;;;;;;4.21;100.00;96278.50;5070226;28;20029;-60
2023/01/11 10:12:44;;;;;;;11.77;7.88;;;;;;;4.24;100.00;96267.91;5071307;28;20051;-60
2023/01/11 10:15:27;;;;;;;9.13;8.23;;;;;;;4.36;100.00;96271.56;5072607;28;20063;-61
2023/01/11 10:18:14;;;;;;;6.63;6.00;;;;;;;4.40;100.00;96277.47;5072068;28;20044;-61
2023/01/11 10:20:54;;;;;;;6.57;5.97;;;;;;;4.48;100.00;96282.22;5072058;28;20089;-60
2023/01/11 10:23:28;;;;;;;7.10;6.40;;;;;;;4.61;100.00;96295.38;5072762;28;20020;-65
2023/01/11 10:25:57;;;;;;;7.88;7.15;;;;;;;4.66;100.00;96299.41;5071564;28;20028;-66
2023/01/11 10:29:07;;;;;;;10.63;8.48;;;;;;;4.92;100.00;96304.84;5072718;28;20021;-65
2023/01/11 10:42:31;;;;;;;7.25;6.55;;;;;;;4.29;100.00;96307.56;5053149;28;20039;-64
2023/01/11 10:45:04;;;;;;;6.45;5.90;;;;;;;4.19;100.00;96298.63;5071078;28;20052;-64
2023/01/11 10:47:47;;;;;;;7.15;6.55;;;;;;;4.14;100.00;96285.03;5068924;28;20025;-62
2023/01/11 10:50:25;;;;;;;13.65;7.80;;;;;;;4.09;100.00;96279.19;5071960;28;20046;-63
2023/01/11 10:53:20;;;;;;;9.43;7.07;;;;;;;4.24;100.00;96282.72;5071631;28;20135;-62
2023/01/11 10:55:56;;;;;;;7.95;7.18;;;;;;;4.48;100.00;96275.22;5068530;28;20048;-62
2023/01/11 10:58:37;;;;;;;8.27;7.20;;;;;;;4.51;100.00;96274.22;5071652;28;20057;-63
2023/01/11 11:01:27;;;;;;;8.77;7.90;;;;;;;4.62;100.00;96274.41;5071351;28;20039;-60
2023/01/11 11:04:13;;;;;;;9.90;8.82;;;;;;;4.77;100.00;96282.28;5071441;28;20024;-61
2023/01/11 11:06:57;;;;;;;7.93;7.18;;;;;;;4.83;100.00;96285.34;5067868;28;20457;-61
2023/01/11 11:09:25;;;;;;;9.45;8.52;;;;;;;4.80;100.00;96277.72;5071062;28;20066;-61
2023/01/11 11:11:59;;;;;;;10.88;9.80;;;;;;;4.85;100.00;96277.41;5071605;28;20406;-61
2023/01/11 11:14:31;;;;;;;8.25;7.45;;;;;;;4.85;100.00;96278.28;5071249;28;20016;-61
2023/01/11 11:17:02;;;;;;;7.88;6.95;;;;;;;4.93;100.00;96266.53;5070480;28;20103;-60
2023/01/11 11:19:31;;;;;;;6.72;6.13;;;;;;;5.02;100.00;96265.97;5064502;28;20056;-61
2023/01/11 11:21:57;;;;;;;8.38;6.32;;;;;;;5.03;100.00;96270.28;5064385;28;20027;-63
2023/01/11 11:24:31;;;;;;;8.15;5.60;;;;;;;4.98;100.00;96267.94;5068287;28;20025;-62
2023/01/11 11:27:05;;;;;;;7.03;6.35;;;;;;;4.98;100.00;96267.09;5070125;28;20383;-62
2023/01/11 11:29:31;;;;;;;6.30;5.20;;;;;;;4.98;100.00;96257.50;5069825;28;20070;-61
2023/01/11 11:31:59;;;;;;;10.07;6.82;;;;;;;4.98;100.00;96257.50;5069472;28;20027;-63
2023/01/11 11:34:27;;;;;;;8.15;7.45;;;;;;;5.02;100.00;96253.75;5072545;28;20040;-64
2023/01/11 11:36:54;;;;;;;7.80;7.10;;;;;;;5.05;100.00;96246.66;5069228;28;20024;-64
2023/01/11 11:39:28;;;;;;;15.52;12.02;;;;;;;5.05;100.00;96241.44;5053047;28;20105;-61
2023/01/11 11:42:06;;;;;;;11.43;10.23;;;;;;;5.15;100.00;96250.41;5054289;28;20028;-61
2023/01/11 11:44:32;;;;;;;10.93;9.90;;;;;;;5.02;100.00;96245.09;5053242;28;20025;-61
2023/01/11 11:47:12;;;;;;;10.18;9.20;;;;;;;5.03;100.00;96238.94;5054948;28;20028;-60
2023/01/11 11:49:38;;;;;;;10.07;9.15;;;;;;;4.98;100.00;96239.22;5068338;28;20043;-61
2023/01/11 11:52:05;;;;;;;11.10;9.15;;;;;;;5.26;100.00;96249.75;5052888;28;20104;-61
2023/01/11 11:54:48;;;;;;;10.80;7.95;;;;;;;5.34;100.00;96244.03;5054224;28;20025;-62
2023/01/11 11:57:29;;;;;;;8.35;6.22;;;;;;;5.05;100.00;96229.25;5052663;28;20056;-64
2023/01/11 12:00:06;;;;;;;7.57;6.75;;;;;;;4.93;100.00;96220.41;5052773;28;20511;-65
2023/01/11 12:02:34;;;;;;;7.80;7.00;;;;;;;4.80;100.00;96215.09;5056923;28;20509;-63
2023/01/11 12:05:06;;;;;;;13.73;11.15;;;;;;;4.75;100.00;96213.69;5057786;28;20021;-62